createdAt,value
2019-02-17T00:01:57.153Z,10.20
2019-02-17T00:04:27.969Z,10.47
2019-02-17T00:07:00.668Z,11.63
2019-02-17T00:09:34.920Z,11.90
2019-02-17T00:12:09.259Z,11.47
2019-02-17T00:14:40.413Z,12.40
2019-02-17T00:17:13.361Z,12.10
2019-02-17T00:19:42.774Z,12.60
2019-02-17T00:22:11.200Z,13.13
2019-02-17T00:24:39.633Z,12.07
2019-02-17T00:27:08.050Z,13.07
2019-02-17T00:29:38.129Z,13.57
2019-02-17T00:32:14.331Z,13.40
2019-02-17T00:34:47.128Z,13.57
2019-02-17T00:37:17.253Z,12.57
2019-02-17T00:39:45.702Z,12.20
2019-02-17T00:42:19.694Z,13.20
2019-02-17T00:44:53.541Z,13.90
2019-02-17T00:47:27.705Z,13.30
2019-02-17T00:49:56.142Z,13.10
2019-02-17T00:52:27.322Z,13.27
2019-02-17T00:55:00.044Z,12.47
2019-02-17T00:57:37.503Z,12.27
2019-02-17T01:00:09.347Z,12.53
2019-02-17T01:02:37.773Z,12.70
2019-02-17T01:05:14.838Z,13.53
2019-02-17T01:07:47.578Z,12.77
2019-02-17T01:10:22.985Z,11.83
2019-02-17T01:12:54.821Z,13.27
2019-02-17T01:15:23.212Z,12.93
2019-02-17T01:18:00.409Z,12.53
2019-02-17T01:20:37.770Z,12.97
2019-02-17T01:23:11.569Z,12.67
2019-02-17T01:25:40.240Z,12.80
2019-02-17T01:28:20.081Z,13.10
2019-02-17T01:30:51.942Z,13.87
2019-02-17T01:33:21.409Z,13.97
2019-02-17T01:35:49.871Z,13.83
2019-02-17T01:38:21.189Z,14.67
2019-02-17T01:40:58.688Z,13.30
2019-02-17T01:43:31.545Z,14.80
2019-02-17T01:46:00.491Z,14.27
2019-02-17T01:48:34.318Z,16.13
2019-02-17T01:51:11.965Z,15.13
2019-02-17T01:53:42.021Z,14.90
2019-02-17T01:56:15.057Z,15.47
2019-02-17T01:58:46.121Z,15.47
2019-02-17T02:01:17.081Z,16.17
2019-02-17T02:03:53.835Z,14.90
2019-02-17T02:06:25.293Z,16.13
2019-02-17T02:09:01.267Z,15.30
2019-02-17T02:11:40.802Z,16.67
2019-02-17T02:14:16.745Z,15.00
2019-02-17T02:16:46.990Z,15.07
2019-02-17T02:19:19.762Z,14.20
2019-02-17T02:21:51.132Z,14.93
2019-02-17T02:24:25.661Z,14.60
2019-02-17T02:26:55.461Z,15.07
2019-02-17T02:29:23.886Z,16.10
2019-02-17T02:31:55.448Z,15.97
2019-02-17T02:34:29.675Z,15.00
2019-02-17T02:36:58.130Z,16.00
2019-02-17T02:39:29.394Z,18.00
2019-02-17T02:42:07.249Z,17.70
2019-02-17T02:44:38.561Z,17.70
2019-02-17T02:47:06.988Z,16.93
2019-02-17T02:49:35.417Z,19.07
2019-02-17T02:52:03.846Z,18.67
2019-02-17T02:54:33.913Z,16.13
2019-02-17T02:57:05.241Z,15.27
2019-02-17T02:59:39.049Z,18.23
2019-02-17T03:02:08.497Z,18.50
2019-02-17T03:04:36.908Z,18.13
2019-02-17T03:07:05.402Z,17.53
2019-02-17T03:09:36.799Z,17.03
2019-02-17T03:12:08.126Z,16.13
2019-02-17T03:14:36.808Z,15.50
2019-02-17T03:17:06.873Z,14.30
2019-02-17T03:19:41.001Z,15.57
2019-02-17T03:22:20.088Z,15.33
2019-02-17T03:24:57.456Z,16.43
2019-02-17T03:27:28.819Z,14.33
2019-02-17T03:30:05.004Z,14.30
2019-02-17T03:32:32.641Z,16.27
2019-02-17T03:35:02.725Z,15.57
2019-02-17T03:37:40.003Z,14.87
2019-02-17T03:40:12.649Z,16.93
2019-02-17T03:42:42.714Z,16.83
2019-02-17T03:45:17.571Z,15.00
2019-02-17T03:47:50.306Z,15.83
2019-02-17T03:50:25.290Z,16.33
2019-02-17T03:52:53.755Z,16.13
2019-02-17T03:55:26.248Z,17.60
2019-02-17T03:57:54.674Z,17.13
2019-02-17T04:00:40.390Z,17.30
2019-02-17T04:03:14.766Z,16.27
2019-02-17T04:05:45.842Z,16.73
2019-02-17T04:08:20.549Z,16.23
2019-02-17T04:10:56.678Z,17.17
2019-02-17T04:13:28.014Z,16.10
2019-02-17T04:15:59.603Z,15.00
2019-02-17T04:18:33.783Z,15.07
2019-02-17T04:21:02.216Z,15.30
2019-02-17T04:23:31.660Z,15.83
2019-02-17T04:26:12.553Z,15.77
2019-02-17T04:28:42.613Z,15.03
2019-02-17T04:31:12.673Z,14.70
2019-02-17T04:33:44.070Z,15.53
2019-02-17T04:36:16.800Z,16.53
2019-02-17T04:38:45.227Z,16.10
2019-02-17T04:41:16.313Z,16.23
2019-02-17T04:43:44.738Z,16.60
2019-02-17T04:46:20.450Z,17.53
2019-02-17T04:48:48.869Z,17.97
2019-02-17T04:51:19.954Z,16.93
2019-02-17T04:53:53.021Z,15.80
2019-02-17T04:56:25.803Z,14.93
2019-02-17T04:58:54.226Z,13.37
2019-02-17T05:01:26.134Z,16.30
2019-02-17T05:04:00.020Z,15.17
2019-02-17T05:06:31.369Z,16.47
2019-02-17T05:09:03.667Z,14.53
2019-02-17T05:11:37.899Z,15.07
2019-02-17T05:14:06.315Z,15.13
2019-02-17T05:16:35.747Z,14.90
2019-02-17T05:19:05.801Z,14.20
2019-02-17T05:21:34.229Z,15.27
2019-02-17T05:24:17.128Z,15.67
2019-02-17T05:26:51.719Z,13.97
2019-02-17T05:29:22.872Z,14.37
2019-02-17T05:31:51.298Z,14.57
2019-02-17T05:34:21.349Z,14.90
2019-02-17T05:36:51.663Z,14.97
2019-02-17T05:39:20.099Z,15.33
2019-02-17T05:41:54.163Z,15.27
2019-02-17T05:44:26.305Z,15.73
2019-02-17T05:46:54.803Z,14.90
2019-02-17T05:49:25.897Z,14.00
2019-02-17T05:51:56.150Z,15.90
2019-02-17T05:54:34.730Z,17.30
2019-02-17T05:57:03.304Z,16.20
2019-02-17T05:59:37.302Z,16.90
2019-02-17T06:02:11.118Z,16.00
2019-02-17T06:04:48.041Z,15.37
2019-02-17T06:07:19.416Z,15.57
2019-02-17T06:09:53.531Z,15.87
2019-02-17T06:12:23.640Z,15.97
2019-02-17T06:14:52.310Z,16.00
2019-02-17T06:17:20.743Z,15.27
2019-02-17T06:19:54.894Z,14.53
2019-02-17T06:22:23.322Z,15.73
2019-02-17T06:24:51.749Z,14.87
2019-02-17T06:27:21.823Z,14.10
2019-02-17T06:29:55.814Z,14.23
2019-02-17T06:32:29.565Z,15.50
2019-02-17T06:34:59.630Z,15.10
2019-02-17T06:37:28.094Z,16.20
2019-02-17T06:40:02.476Z,15.10
2019-02-17T06:42:35.507Z,14.23
2019-02-17T06:45:10.285Z,13.77
2019-02-17T06:47:40.430Z,13.13
2019-02-17T06:50:14.034Z,14.63
2019-02-17T06:52:45.125Z,14.40
2019-02-17T06:55:23.600Z,13.83
2019-02-17T06:57:52.101Z,14.70
2019-02-17T07:00:23.700Z,14.70
2019-02-17T07:03:01.194Z,14.13
2019-02-17T07:05:34.209Z,15.57
2019-02-17T07:08:02.809Z,14.83
2019-02-17T07:10:35.901Z,13.47
2019-02-17T07:13:13.017Z,12.03
2019-02-17T07:15:45.909Z,12.63
2019-02-17T07:18:11.585Z,12.67
2019-02-17T07:20:41.634Z,11.87
2019-02-17T07:23:15.520Z,12.20
2019-02-17T07:25:46.826Z,10.97
2019-02-17T07:28:21.289Z,12.50
2019-02-17T07:30:49.711Z,12.30
2019-02-17T07:33:28.178Z,12.63
2019-02-17T07:35:59.765Z,14.17
2019-02-17T07:38:33.892Z,13.53
2019-02-17T07:41:06.629Z,14.17
2019-02-17T07:43:37.884Z,13.57
2019-02-17T07:46:09.793Z,12.60
2019-02-17T07:48:38.323Z,13.50
2019-02-17T07:51:06.780Z,12.00
2019-02-17T07:53:37.905Z,12.37
2019-02-17T07:56:10.238Z,12.43
2019-02-17T07:58:38.662Z,12.73
2019-02-17T08:01:09.746Z,13.97
2019-02-17T08:03:38.174Z,12.20
2019-02-17T08:06:09.886Z,12.90
2019-02-17T08:08:41.010Z,13.77
2019-02-17T08:11:09.930Z,14.10
2019-02-17T08:13:44.160Z,14.40
2019-02-17T08:16:18.294Z,12.60
2019-02-17T08:18:46.717Z,13.63
2019-02-17T08:21:23.273Z,15.23
2019-02-17T08:23:57.033Z,15.63
2019-02-17T08:26:27.122Z,13.77
2019-02-17T08:28:55.541Z,14.60
2019-02-17T08:31:26.785Z,13.87
2019-02-17T08:34:05.515Z,16.17
2019-02-17T08:36:33.954Z,14.87
2019-02-17T08:39:05.485Z,15.30
2019-02-17T08:41:33.906Z,13.40
2019-02-17T08:44:04.974Z,12.30
2019-02-17T08:46:39.315Z,12.50
2019-02-17T08:49:09.391Z,12.30
2019-02-17T08:51:37.872Z,12.63
2019-02-17T08:54:12.198Z,10.57
2019-02-17T08:56:47.952Z,13.63
2019-02-17T08:59:21.694Z,11.33
2019-02-17T09:01:51.757Z,11.77
2019-02-17T09:04:25.846Z,12.67
2019-02-17T09:06:57.230Z,11.40
2019-02-17T09:09:25.648Z,13.80
2019-02-17T09:11:56.822Z,13.07
2019-02-17T09:14:25.233Z,12.93
2019-02-17T09:16:58.960Z,11.57
2019-02-17T09:19:32.234Z,12.10
2019-02-17T09:22:04.021Z,13.23
2019-02-17T09:24:38.256Z,12.73
2019-02-17T09:27:14.768Z,13.63
2019-02-17T09:29:57.577Z,14.57
2019-02-17T09:32:26.287Z,15.33
2019-02-17T09:34:58.722Z,15.60
2019-02-17T09:37:27.153Z,15.63
2019-02-17T09:39:58.371Z,17.60
2019-02-17T09:42:38.795Z,16.37
2019-02-17T09:45:17.785Z,9.87
2019-02-17T09:47:48.046Z,9.27
2019-02-17T09:50:33.971Z,11.53
2019-02-17T09:53:04.068Z,11.77
2019-02-17T09:55:32.489Z,10.47
2019-02-17T09:58:02.574Z,11.80
2019-02-17T10:00:33.650Z,9.33
2019-02-17T10:03:02.073Z,9.20
2019-02-17T10:05:33.594Z,9.70
2019-02-17T10:08:12.448Z,10.00
2019-02-17T10:10:41.314Z,11.83
2019-02-17T10:13:09.784Z,10.53
2019-02-17T10:15:49.547Z,9.30
2019-02-17T10:18:17.974Z,9.90
2019-02-17T10:20:59.259Z,8.13
2019-02-17T10:23:27.649Z,8.83
2019-02-17T10:25:58.714Z,9.90
2019-02-17T10:28:30.365Z,10.90
2019-02-17T10:30:58.850Z,9.67
2019-02-17T10:33:29.924Z,9.60
2019-02-17T10:36:00.997Z,9.07
2019-02-17T10:38:29.391Z,9.73
2019-02-17T10:40:57.827Z,10.43
2019-02-17T10:43:28.904Z,10.37
2019-02-17T10:45:57.353Z,8.73
2019-02-17T10:48:28.600Z,10.13
2019-02-17T10:51:02.949Z,8.90
2019-02-17T10:53:33.009Z,9.33
2019-02-17T10:56:01.444Z,10.20
2019-02-17T10:58:32.815Z,10.00
2019-02-17T11:01:04.397Z,8.90
2019-02-17T11:03:38.709Z,9.50
2019-02-17T11:06:08.786Z,10.27
2019-02-17T11:08:50.242Z,10.60
2019-02-17T11:11:18.794Z,10.80
2019-02-17T11:13:50.241Z,11.10
2019-02-17T11:16:24.413Z,10.93
2019-02-17T11:18:52.837Z,9.83
2019-02-17T11:21:26.630Z,9.63
2019-02-17T11:23:55.304Z,10.03
2019-02-17T11:26:26.624Z,9.90
2019-02-17T11:28:59.528Z,10.43
2019-02-17T11:31:31.644Z,10.47
2019-02-17T11:34:02.093Z,10.93
2019-02-17T11:36:30.492Z,9.67
2019-02-17T11:38:58.931Z,9.50
2019-02-17T11:41:31.928Z,8.87
2019-02-17T11:44:03.133Z,9.33
2019-02-17T11:46:31.819Z,9.67
2019-02-17T11:49:04.510Z,9.30
2019-02-17T11:51:32.021Z,9.40
2019-02-17T11:54:21.654Z,9.83
2019-02-17T11:56:51.838Z,9.73
2019-02-17T11:59:24.617Z,11.43
2019-02-17T12:01:55.945Z,15.27
2019-02-17T12:04:30.374Z,24.97
2019-02-17T12:07:07.419Z,9.07
2019-02-17T12:09:41.197Z,9.47
2019-02-17T12:12:15.060Z,8.53
2019-02-17T12:14:46.585Z,8.60
2019-02-17T12:19:56.474Z,9.70
2019-02-17T12:22:26.674Z,9.73
2019-02-17T12:24:57.110Z,10.73
2019-02-17T12:27:27.172Z,10.93
2019-02-17T12:30:06.818Z,11.27
2019-02-17T12:32:39.049Z,11.40
2019-02-17T12:35:12.126Z,11.70
2019-02-17T12:37:40.622Z,11.33
2019-02-17T12:40:14.695Z,10.80
2019-02-17T12:42:43.123Z,12.43
2019-02-17T12:45:18.247Z,10.77
2019-02-17T12:47:45.801Z,10.93
2019-02-17T12:50:19.741Z,10.70
2019-02-17T12:52:51.333Z,10.23
2019-02-17T12:55:30.789Z,10.47
2019-02-17T12:58:00.908Z,10.43
2019-02-17T13:00:31.997Z,10.50
2019-02-17T13:03:00.436Z,10.90
2019-02-17T13:05:32.401Z,10.70
2019-02-17T13:08:00.822Z,10.63
2019-02-17T13:10:36.521Z,10.03
2019-02-17T13:13:09.774Z,10.87
2019-02-17T13:15:44.070Z,10.00
2019-02-17T13:18:15.609Z,9.27
2019-02-17T13:20:46.821Z,10.67
2019-02-17T13:23:15.330Z,9.77
2019-02-17T13:25:43.761Z,10.40
2019-02-17T13:28:12.201Z,10.10
2019-02-17T13:30:53.984Z,10.17
2019-02-17T13:33:15.878Z,11.37
2019-02-17T13:35:50.354Z,10.47
2019-02-17T13:38:23.110Z,10.33
2019-02-17T13:40:57.019Z,10.77
2019-02-17T13:43:30.976Z,9.57
2019-02-17T13:45:59.418Z,10.20
2019-02-17T13:48:30.884Z,10.60
2019-02-17T13:51:08.594Z,9.37
2019-02-17T13:53:42.941Z,10.33
2019-02-17T13:56:13.004Z,9.67
2019-02-17T13:58:44.425Z,10.23
2019-02-17T14:01:12.855Z,9.50
2019-02-17T14:03:48.547Z,8.43
2019-02-17T14:06:11.672Z,8.93
2019-02-17T14:08:41.755Z,9.57
2019-02-17T14:11:12.872Z,10.00
2019-02-17T14:13:44.325Z,9.90
2019-02-17T14:16:15.457Z,9.80
2019-02-17T14:18:52.313Z,9.37
2019-02-17T14:21:20.751Z,10.13
2019-02-17T14:23:49.173Z,10.07
2019-02-17T14:26:20.337Z,10.37
2019-02-17T14:28:57.388Z,10.40
2019-02-17T14:31:25.826Z,10.40
2019-02-17T14:33:58.647Z,10.37
2019-02-17T14:36:24.402Z,9.77
2019-02-17T14:38:55.623Z,9.60
2019-02-17T14:41:26.982Z,9.87
2019-02-17T14:43:55.638Z,10.93
2019-02-17T14:46:25.821Z,9.70
2019-02-17T14:49:02.454Z,8.83
2019-02-17T14:51:32.202Z,8.43
2019-02-17T14:54:03.586Z,6.73
2019-02-17T14:56:32.807Z,9.30
2019-02-17T14:59:02.565Z,14.43
2019-02-17T15:01:31.117Z,16.17
2019-02-17T15:04:08.959Z,9.73
2019-02-17T15:06:36.759Z,8.27
2019-02-17T15:09:07.083Z,8.53
2019-02-17T15:11:38.241Z,8.40
2019-02-17T15:14:09.523Z,8.70
2019-02-17T15:16:38.181Z,8.47
2019-02-17T15:19:09.284Z,9.50
2019-02-17T15:21:37.731Z,9.90
2019-02-17T15:24:10.763Z,8.53
2019-02-17T15:26:40.830Z,15.00
2019-02-17T15:29:12.241Z,8.27
2019-02-17T15:31:52.562Z,8.23
2019-02-17T15:34:18.946Z,9.50
2019-02-17T15:36:47.107Z,10.63
2019-02-17T15:39:15.569Z,9.47
2019-02-17T15:41:46.945Z,10.90
2019-02-17T15:44:22.929Z,12.27
2019-02-17T15:46:51.493Z,11.03
2019-02-17T15:49:19.977Z,10.63
2019-02-17T15:51:50.139Z,14.00
2019-02-17T15:54:26.105Z,20.10
2019-02-17T15:57:05.906Z,15.90
2019-02-17T15:59:37.086Z,11.33
2019-02-17T16:02:05.564Z,11.47
2019-02-17T16:04:34.085Z,19.07
2019-02-17T16:07:02.634Z,18.87
2019-02-17T16:09:32.454Z,18.47
2019-02-17T16:12:02.522Z,19.77
2019-02-17T16:14:31.329Z,20.80
2019-02-17T16:17:02.806Z,13.90
2019-02-17T16:19:34.190Z,12.00
2019-02-17T16:22:05.829Z,10.50
2019-02-17T16:24:34.246Z,8.77
2019-02-17T16:27:05.703Z,9.03
2019-02-17T16:29:35.485Z,11.57
2019-02-17T16:32:04.110Z,12.87
2019-02-17T16:34:38.514Z,10.90
2019-02-17T16:37:07.125Z,9.10
2019-02-17T16:39:41.403Z,9.60
2019-02-17T16:42:18.470Z,8.17
2019-02-17T16:44:46.902Z,7.73
2019-02-17T16:47:15.315Z,7.50
2019-02-17T16:49:43.739Z,8.30
2019-02-17T16:52:15.109Z,7.83
2019-02-17T16:54:48.032Z,7.50
2019-02-17T16:57:19.133Z,8.17
2019-02-17T16:59:50.667Z,8.60
2019-02-17T17:02:27.445Z,12.73
2019-02-17T17:04:55.930Z,8.20
2019-02-17T17:07:31.598Z,17.17
2019-02-17T17:10:04.681Z,13.97
2019-02-17T17:12:35.734Z,15.03
2019-02-17T17:15:05.397Z,16.83
2019-02-17T17:17:42.598Z,13.47
2019-02-17T17:20:24.687Z,11.23
2019-02-17T17:22:53.093Z,22.37
2019-02-17T17:25:21.518Z,20.37
2019-02-17T17:27:49.954Z,14.30
2019-02-17T17:30:19.218Z,13.57
2019-02-17T17:32:50.660Z,10.70
2019-02-17T17:35:22.508Z,11.40
2019-02-17T17:37:51.468Z,12.37
2019-02-17T17:40:20.139Z,17.10
2019-02-17T17:42:54.134Z,16.40
2019-02-17T17:45:22.895Z,13.80
2019-02-17T17:47:54.442Z,12.27
2019-02-17T17:50:24.500Z,11.40
2019-02-17T17:52:58.635Z,11.73
2019-02-17T17:55:29.783Z,10.63
2019-02-17T17:57:58.311Z,10.17
2019-02-17T18:00:34.837Z,9.80
2019-02-17T18:03:08.770Z,9.70
2019-02-17T18:05:39.009Z,10.27
2019-02-17T18:08:15.446Z,9.60
2019-02-17T18:10:44.763Z,9.90
2019-02-17T18:13:14.880Z,10.23
2019-02-17T18:15:44.965Z,10.70
2019-02-17T18:18:16.419Z,11.43
2019-02-17T18:20:47.802Z,10.77
2019-02-17T18:23:17.858Z,11.27
2019-02-17T18:25:48.157Z,12.40
2019-02-17T18:28:22.081Z,10.70
2019-02-17T18:30:51.329Z,16.87
2019-02-17T18:33:25.619Z,25.63
2019-02-17T18:35:54.382Z,19.07
2019-02-17T18:38:22.797Z,31.53
2019-02-17T18:40:51.227Z,36.80
2019-02-17T18:43:19.657Z,65.50
2019-02-17T18:45:52.939Z,55.93
2019-02-17T18:48:26.021Z,30.97
2019-02-17T18:50:59.280Z,25.27
2019-02-17T18:53:26.469Z,22.07
2019-02-17T18:55:57.557Z,17.87
2019-02-17T18:58:28.653Z,17.33
2019-02-17T19:01:02.853Z,16.37
2019-02-17T19:03:31.274Z,17.23
2019-02-17T19:06:00.112Z,15.57
2019-02-17T19:08:34.353Z,15.30
2019-02-17T19:11:02.783Z,15.47
2019-02-17T19:13:37.549Z,16.13
2019-02-17T19:16:06.189Z,16.53
2019-02-17T19:18:34.937Z,16.17
2019-02-17T19:21:06.422Z,14.93
2019-02-17T19:23:34.840Z,13.57
2019-02-17T19:26:10.845Z,15.37
2019-02-17T19:28:40.970Z,15.97
2019-02-17T19:31:21.386Z,15.90
2019-02-17T19:33:57.489Z,19.20
2019-02-17T19:36:25.901Z,16.43
2019-02-17T19:38:57.887Z,16.17
2019-02-17T19:41:26.313Z,15.43
2019-02-17T19:43:54.745Z,15.53
2019-02-17T19:46:25.801Z,20.20
2019-02-17T19:48:55.865Z,25.87
2019-02-17T19:51:26.989Z,40.80
2019-02-17T19:54:01.145Z,40.27
2019-02-17T19:56:35.328Z,38.80
2019-02-17T19:59:13.053Z,29.13
2019-02-17T20:01:41.469Z,20.33
2019-02-17T20:04:17.370Z,22.50
2019-02-17T20:06:47.422Z,21.70
2019-02-17T20:09:18.574Z,21.17
2019-02-17T20:11:52.701Z,18.60
2019-02-17T20:14:21.121Z,18.17
2019-02-17T20:16:53.197Z,17.00
2019-02-17T20:19:25.691Z,16.57
2019-02-17T20:21:57.303Z,15.77
2019-02-17T20:24:25.721Z,15.30
2019-02-17T20:26:58.558Z,14.07
2019-02-17T20:29:35.057Z,17.13
2019-02-17T20:32:17.556Z,16.50
2019-02-17T20:34:45.994Z,15.00
2019-02-17T20:37:14.408Z,14.57
2019-02-17T20:39:42.839Z,13.67
2019-02-17T20:42:28.441Z,14.20
2019-02-17T20:44:58.502Z,14.83
2019-02-17T20:47:29.941Z,15.37
2019-02-17T20:50:05.261Z,14.50
2019-02-17T20:52:33.676Z,14.20
2019-02-17T20:55:13.894Z,14.07
2019-02-17T20:57:45.012Z,13.63
2019-02-17T21:00:18.569Z,13.07
2019-02-17T21:02:52.573Z,12.93
2019-02-17T21:05:26.850Z,14.07
2019-02-17T21:07:55.271Z,14.67
2019-02-17T21:10:29.935Z,12.93
2019-02-17T21:13:16.654Z,13.70
2019-02-17T21:15:45.088Z,12.27
2019-02-17T21:18:21.859Z,12.27
2019-02-17T21:20:53.341Z,12.07
2019-02-17T21:23:24.762Z,12.07
2019-02-17T21:25:53.193Z,10.80
2019-02-17T21:28:24.330Z,12.27
2019-02-17T21:30:53.549Z,12.90
2019-02-17T21:33:39.626Z,12.37
2019-02-17T21:36:09.697Z,12.07
2019-02-17T21:38:40.789Z,11.70
2019-02-17T21:41:10.861Z,11.37
2019-02-17T21:43:44.661Z,11.27
2019-02-17T21:46:20.762Z,11.00
2019-02-17T21:48:49.182Z,11.87
2019-02-17T21:51:17.617Z,12.07
2019-02-17T21:53:56.566Z,11.83
2019-02-17T21:56:34.021Z,11.43
2019-02-17T21:59:08.481Z,10.83
2019-02-17T22:01:38.541Z,11.57
2019-02-17T22:04:09.904Z,11.33
2019-02-17T22:06:42.122Z,10.70
2019-02-17T22:09:16.583Z,10.23
2019-02-17T22:11:51.045Z,10.67
2019-02-17T22:14:19.461Z,9.43
2019-02-17T22:17:03.046Z,10.77
2019-02-17T22:19:35.773Z,10.90
2019-02-17T22:22:21.294Z,11.57
2019-02-17T22:24:52.562Z,10.37
2019-02-17T22:27:22.646Z,10.83
2019-02-17T22:29:54.082Z,9.60
2019-02-17T22:32:24.158Z,9.70
2019-02-17T22:34:53.865Z,10.87
2019-02-17T22:37:23.929Z,10.60
2019-02-17T22:39:54.789Z,11.13
2019-02-17T22:42:33.807Z,9.87
2019-02-17T22:45:09.866Z,11.40
2019-02-17T22:47:38.536Z,10.93
2019-02-17T22:50:17.213Z,10.63
2019-02-17T22:52:45.954Z,9.70
2019-02-17T22:55:22.067Z,10.43
2019-02-17T22:57:51.146Z,10.80
2019-02-17T23:00:51.461Z,9.60
2019-02-17T23:03:24.321Z,10.00
2019-02-17T23:06:01.773Z,9.93
2019-02-17T23:08:30.204Z,9.73
2019-02-17T23:11:01.661Z,9.50
2019-02-17T23:13:30.405Z,9.60
2019-02-17T23:16:03.401Z,9.13
2019-02-17T23:18:36.706Z,8.90
2019-02-17T23:21:13.882Z,9.20
2019-02-17T23:23:42.555Z,8.20
2019-02-17T23:26:12.617Z,8.47
2019-02-17T23:28:43.958Z,8.10
2019-02-17T23:31:24.096Z,8.13
2019-02-17T23:33:52.590Z,8.40
2019-02-17T23:36:29.445Z,7.73
2019-02-17T23:38:57.893Z,8.07
2019-02-17T23:41:32.503Z,7.67
2019-02-17T23:44:02.573Z,8.30
2019-02-17T23:46:33.966Z,8.37
2019-02-17T23:49:02.409Z,8.17
2019-02-17T23:51:36.564Z,8.37
2019-02-17T23:54:18.553Z,8.73
2019-02-17T23:56:48.601Z,8.43
2019-02-17T23:59:19.939Z,8.03
